Time;durP1;ratioP1;P1;durP2;ratioP2;P2;SDS_P1;SDS_P2;PMS_P1;PMS_P2;Temp;Humidity;BMP_temperature;BMP_pressure;BME280_temperature;BME280_humidity;BME280_pressure;Samples;Min_cycle;Max_cycle;Signal;HPM_P1;HPM_P2
2023/01/26 00:00:10;;;;;;;65.77;21.90;;;0.10;97.70;;;;;;6171449;23;20020;-85
2023/01/26 00:02:55;;;;;;;63.40;21.53;;;0.10;97.70;;;;;;6199286;23;20051;-85
2023/01/26 00:05:22;;;;;;;71.77;24.53;;;0.10;97.80;;;;;;6246281;23;20031;-86
2023/01/26 00:07:50;;;;;;;60.33;18.53;;;0.00;97.80;;;;;;6196016;23;20055;-86
2023/01/26 00:10:41;;;;;;;58.03;18.63;;;0.00;97.80;;;;;;6222118;23;20016;-86
2023/01/26 00:13:13;;;;;;;51.87;20.00;;;0.00;97.90;;;;;;6197082;23;20086;-85
2023/01/26 00:16:01;;;;;;;46.37;15.07;;;0.10;97.90;;;;;;6195648;23;20544;-85
2023/01/26 00:18:31;;;;;;;47.03;16.00;;;0.10;97.90;;;;;;6195724;23;20016;-86
2023/01/26 00:21:00;;;;;;;34.53;13.67;;;0.10;97.90;;;;;;6195504;23;20446;-85
2023/01/26 00:23:31;;;;;;;;;;;0.20;97.90;;;;;;6196371;23;20012;-85
2023/01/26 00:26:04;;;;;;;47.53;14.33;;;0.20;97.90;;;;;;6245875;23;20306;-85
2023/01/26 00:28:36;;;;;;;44.13;12.97;;;0.20;97.90;;;;;;6219849;23;20095;-86
2023/01/26 00:31:15;;;;;;;45.70;14.53;;;0.20;97.90;;;;;;6171599;23;20063;-88
2023/01/26 00:33:49;;;;;;;50.67;15.93;;;0.20;97.80;;;;;;6221289;23;20008;-88
2023/01/26 00:36:17;;;;;;;49.57;16.57;;;0.20;97.90;;;;;;6171667;23;20024;-89
2023/01/26 00:38:56;;;;;;;45.60;17.03;;;0.20;97.90;;;;;;6222258;23;20020;-89
2023/01/26 00:44:23;;;;;;;34.20;12.77;;;0.20;97.90;;;;;;6221621;23;20055;-88
2023/01/26 00:46:58;;;;;;;39.77;15.03;;;0.20;97.90;;;;;;6197434;23;20116;-88
2023/01/26 00:49:36;;;;;;;37.87;12.70;;;0.20;97.90;;;;;;6175646;23;20019;-88
2023/01/26 00:52:06;;;;;;;41.40;15.23;;;0.20;97.90;;;;;;6221341;23;20020;-88
2023/01/26 00:54:36;;;;;;;45.83;15.23;;;0.20;97.90;;;;;;6195174;23;20517;-85
2023/01/26 00:57:03;;;;;;;51.23;17.17;;;0.20;97.90;;;;;;6219715;23;20059;-85
2023/01/26 00:59:34;;;;;;;41.47;14.23;;;0.20;97.90;;;;;;6194873;23;20393;-85
2023/01/26 01:02:03;;;;;;;44.70;14.67;;;0.20;97.90;;;;;;6194990;23;20031;-84
2023/01/26 01:04:36;;;;;;;52.50;16.67;;;0.20;97.90;;;;;;6194492;23;20030;-85
2023/01/26 01:07:03;;;;;;;47.63;17.40;;;0.20;97.90;;;;;;6195468;23;20020;-85
2023/01/26 01:09:32;;;;;;;53.23;17.70;;;0.20;97.90;;;;;;6146466;23;20074;-85
2023/01/26 01:11:59;;;;;;;47.73;16.33;;;0.20;97.90;;;;;;6194776;23;20020;-85
2023/01/26 01:14:27;;;;;;;50.27;16.87;;;0.20;97.90;;;;;;6220189;23;20099;-85
2023/01/26 01:16:57;;;;;;;52.53;17.33;;;0.20;97.90;;;;;;6194606;23;20066;-85
2023/01/26 01:19:27;;;;;;;56.70;19.67;;;0.20;98.00;;;;;;6196119;23;20454;-85
2023/01/26 01:21:58;;;;;;;49.53;16.13;;;0.20;98.00;;;;;;6220145;23;20020;-86
2023/01/26 01:24:33;;;;;;;50.07;17.60;;;0.10;98.00;;;;;;6195669;23;20024;-85
2023/01/26 01:27:03;;;;;;;42.28;14.30;;;0.20;98.00;;;;;;6220392;23;20083;-85
2023/01/26 01:29:30;;;;;;;44.03;15.07;;;0.20;98.00;;;;;;6220006;23;20016;-86
2023/01/26 01:32:01;;;;;;;44.43;14.90;;;0.20;98.10;;;;;;6196347;23;20020;-92
2023/01/26 01:34:28;;;;;;;46.97;16.10;;;0.30;98.00;;;;;;6196360;23;20098;-91
2023/01/26 01:37:01;;;;;;;45.30;15.10;;;0.20;98.00;;;;;;6220733;23;20020;-91
2023/01/26 01:39:29;;;;;;;51.37;17.00;;;0.20;98.00;;;;;;6171936;23;20026;-92
2023/01/26 01:41:57;;;;;;;50.93;15.83;;;0.20;98.10;;;;;;6195926;23;20103;-92
2023/01/26 01:44:29;;;;;;;;;;;0.20;98.10;;;;;;6197847;23;20107;-91
2023/01/26 01:47:08;;;;;;;35.80;11.60;;;0.10;98.10;;;;;;6195233;23;19916;-91
2023/01/26 01:49:38;;;;;;;41.40;13.80;;;0.20;98.10;;;;;;6195294;23;20442;-91
2023/01/26 01:52:25;;;;;;;39.77;14.53;;;0.20;98.10;;;;;;6196974;23;20020;-91
2023/01/26 01:55:04;;;;;;;37.90;13.90;;;0.20;98.10;;;;;;6196320;23;20020;-91
2023/01/26 01:57:50;;;;;;;37.10;12.97;;;0.20;98.10;;;;;;6196332;23;20351;-86
2023/01/26 02:00:29;;;;;;;38.43;12.93;;;0.20;98.20;;;;;;6195593;23;20099;-86
2023/01/26 02:03:18;;;;;;;32.27;11.33;;;0.20;98.20;;;;;;6200520;23;20036;-86
2023/01/26 02:06:10;;;;;;;34.73;12.53;;;0.30;98.20;;;;;;6194798;23;20031;-86
2023/01/26 02:08:59;;;;;;;36.27;13.07;;;0.30;98.10;;;;;;6194987;23;20020;-85
2023/01/26 02:11:36;;;;;;;39.00;12.80;;;0.30;98.20;;;;;;6194532;23;20386;-86
2023/01/26 02:14:08;;;;;;;33.43;12.50;;;0.30;98.20;;;;;;6194334;23;20095;-85
2023/01/26 02:16:38;;;;;;;33.90;11.88;;;0.30;98.20;;;;;;6194977;23;20054;-86
2023/01/26 02:19:19;;;;;;;27.98;10.45;;;0.30;98.20;;;;;;6195098;23;20016;-86
2023/01/26 02:21:48;;;;;;;32.13;10.67;;;0.30;98.20;;;;;;6194660;23;20024;-86
2023/01/26 02:24:30;;;;;;;32.07;10.20;;;0.30;98.30;;;;;;6194790;23;20016;-85
2023/01/26 02:27:00;;;;;;;34.87;10.67;;;0.40;98.30;;;;;;6194892;23;20107;-86
2023/01/26 02:29:33;;;;;;;29.50;9.53;;;0.40;98.30;;;;;;6219140;23;20031;-86
2023/01/26 02:32:00;;;;;;;29.03;9.80;;;0.40;98.30;;;;;;6194293;23;20090;-86
2023/01/26 02:34:30;;;;;;;29.00;9.77;;;0.30;98.30;;;;;;6194216;23;20028;-86
2023/01/26 02:37:03;;;;;;;28.30;10.53;;;0.40;98.30;;;;;;6194744;23;20027;-86
2023/01/26 02:39:47;;;;;;;32.87;10.70;;;0.40;98.30;;;;;;6194277;23;20070;-86
2023/01/26 02:42:40;;;;;;;29.35;9.55;;;0.40;98.30;;;;;;6219133;23;20106;-87
2023/01/26 02:45:13;;;;;;;31.00;10.87;;;0.40;98.30;;;;;;6194166;23;20027;-86
2023/01/26 02:47:44;;;;;;;26.90;9.23;;;0.50;98.30;;;;;;6194841;23;20020;-86
2023/01/26 02:50:14;;;;;;;28.77;8.87;;;0.50;98.30;;;;;;6194553;23;20023;-86
2023/01/26 02:52:46;;;;;;;29.50;10.17;;;0.50;98.20;;;;;;6218506;23;20575;-85
2023/01/26 02:55:27;;;;;;;34.13;10.47;;;0.50;98.20;;;;;;6194794;23;20012;-85
2023/01/26 02:57:58;;;;;;;31.80;10.80;;;0.50;98.20;;;;;;6219357;23;20028;-85
2023/01/26 03:00:36;;;;;;;32.23;12.57;;;0.50;98.20;;;;;;6195155;23;20074;-86
2023/01/26 03:03:14;;;;;;;38.50;12.53;;;0.50;98.30;;;;;;6197437;23;20146;-86
2023/01/26 03:05:42;;;;;;;30.57;10.37;;;0.40;98.30;;;;;;6220923;23;20077;-90
2023/01/26 03:08:11;;;;;;;29.87;10.70;;;0.40;98.30;;;;;;6198200;23;20020;-90
2023/01/26 03:10:39;;;;;;;27.43;9.93;;;0.50;98.30;;;;;;6223191;23;20020;-90
2023/01/26 03:13:08;;;;;;;39.23;12.80;;;0.50;98.30;;;;;;6246356;23;20027;-89
2023/01/26 03:15:41;;;;;;;34.27;13.67;;;0.50;98.30;;;;;;6181858;23;20020;-89
2023/01/26 03:29:43;;;;;;;30.23;10.70;;;0.40;98.30;;;;;;6199758;23;20020;-85
2023/01/26 03:32:14;;;;;;;33.97;12.70;;;0.40;98.30;;;;;;6220980;23;20018;-86
2023/01/26 03:34:46;;;;;;;34.87;11.40;;;0.40;98.30;;;;;;6245146;23;20103;-85
2023/01/26 03:37:13;;;;;;;25.53;8.93;;;0.40;98.30;;;;;;6220555;23;20020;-84
2023/01/26 03:56:31;;;;;;;29.67;11.87;;;0.40;98.40;;;;;;6199512;23;20020;-84
2023/01/26 03:59:07;;;;;;;30.93;11.40;;;0.40;98.40;;;;;;6245598;23;20020;-85
2023/01/26 04:10:08;;;;;;;30.37;10.77;;;0.40;98.50;;;;;;6220594;23;20016;-84
2023/01/26 04:12:36;;;;;;;29.60;10.80;;;0.40;98.50;;;;;;6195287;23;20026;-85
2023/01/26 04:23:56;;;;;;;26.33;9.37;;;0.40;98.60;;;;;;6220418;23;20020;-84
2023/01/26 04:26:35;;;;;;;27.60;8.70;;;0.40;98.60;;;;;;6220079;23;20028;-84
2023/01/26 04:29:12;;;;;;;25.03;9.53;;;0.40;98.60;;;;;;6174085;23;20093;-84
2023/01/26 04:31:41;;;;;;;19.77;7.47;;;0.40;98.60;;;;;;6219489;23;20358;-85
2023/01/26 04:34:14;;;;;;;17.97;8.37;;;0.50;98.70;;;;;;6220428;23;20027;-84
2023/01/26 04:36:44;;;;;;;23.53;8.37;;;0.40;98.60;;;;;;6220272;23;20020;-84
2023/01/26 04:39:16;;;;;;;23.83;8.67;;;0.50;98.70;;;;;;6196029;23;20024;-83
2023/01/26 04:42:00;;;;;;;26.13;9.10;;;0.40;98.90;;;;;;6219789;23;20028;-84
2023/01/26 04:44:37;;;;;;;22.67;8.33;;;0.50;98.70;;;;;;6194747;23;20024;-83
2023/01/26 04:47:08;;;;;;;23.40;8.33;;;0.50;98.70;;;;;;6194792;23;20048;-84
2023/01/26 04:49:38;;;;;;;22.73;7.90;;;0.50;98.70;;;;;;6192235;23;20031;-84
2023/01/26 04:52:11;;;;;;;20.87;7.17;;;0.50;98.70;;;;;;6194674;23;20020;-83
2023/01/26 04:54:42;;;;;;;23.47;8.50;;;0.50;98.70;;;;;;6195464;23;20012;-85
2023/01/26 04:57:10;;;;;;;22.90;8.60;;;0.50;98.70;;;;;;6194692;23;20095;-84
2023/01/26 04:59:40;;;;;;;25.63;10.70;;;0.50;98.80;;;;;;6195340;23;20020;-84
2023/01/26 05:02:11;;;;;;;26.87;10.00;;;0.50;98.80;;;;;;6198372;22;20434;-85
2023/01/26 05:04:38;;;;;;;27.30;10.03;;;0.50;98.80;;;;;;6225154;22;20016;-84
2023/01/26 05:07:06;;;;;;;21.77;8.60;;;0.50;98.80;;;;;;6225090;22;20480;-84
2023/01/26 05:09:33;;;;;;;20.97;7.27;;;0.50;98.90;;;;;;6225666;22;20053;-84
2023/01/26 05:12:33;;;;;;;19.33;7.77;;;0.50;98.80;;;;;;6253030;22;20026;-84
2023/01/26 05:15:43;;;;;;;16.65;6.75;;;0.50;98.80;;;;;;6168293;23;20025;-84
2023/01/26 05:18:17;;;;;;;23.58;8.75;;;0.60;98.80;;;;;;6159061;23;20095;-84
2023/01/26 05:21:00;;;;;;;28.97;9.87;;;0.60;98.80;;;;;;6177189;22;20070;-83
2023/01/26 05:23:34;;;;;;;24.17;9.82;;;0.60;98.80;;;;;;6249747;22;20020;-84
2023/01/26 05:26:21;;;;;;;23.53;8.40;;;0.50;98.80;;;;;;6227203;22;20345;-84
2023/01/26 05:29:02;;;;;;;19.90;7.80;;;0.60;98.90;;;;;;6205627;22;20015;-84
2023/01/26 05:31:32;;;;;;;21.13;7.17;;;0.60;98.90;;;;;;6201562;22;20015;-84
2023/01/26 05:34:09;;;;;;;15.77;6.70;;;0.60;98.90;;;;;;6200418;22;20346;-84
2023/01/26 05:36:36;;;;;;;16.93;6.80;;;0.60;98.90;;;;;;6249613;22;20019;-84
2023/01/26 05:39:11;;;;;;;17.40;6.03;;;0.60;98.90;;;;;;6199487;22;20030;-84
2023/01/26 05:41:42;;;;;;;18.67;6.17;;;0.60;98.90;;;;;;6250200;22;20319;-84
2023/01/26 05:44:28;;;;;;;15.27;5.75;;;0.70;98.90;;;;;;6234264;22;20373;-84
2023/01/26 05:47:09;;;;;;;16.93;5.53;;;0.70;98.90;;;;;;6225942;22;20099;-84
2023/01/26 05:49:44;;;;;;;17.97;6.10;;;0.70;98.90;;;;;;6225839;22;20015;-84
2023/01/26 05:52:19;;;;;;;17.87;6.57;;;0.70;98.90;;;;;;6249956;22;20381;-85
2023/01/26 05:54:57;;;;;;;14.90;6.10;;;0.70;98.90;;;;;;6226021;22;20449;-85
2023/01/26 05:57:36;;;;;;;16.73;5.93;;;0.70;98.90;;;;;;6224948;22;20349;-84
2023/01/26 06:00:14;;;;;;;23.50;8.47;;;0.70;99.00;;;;;;6249559;22;20042;-85
2023/01/26 06:02:55;;;;;;;20.20;7.50;;;0.70;98.90;;;;;;6227364;22;20511;-84
2023/01/26 06:05:22;;;;;;;21.83;7.43;;;0.70;99.00;;;;;;6224663;22;20468;-83
2023/01/26 06:08:03;;;;;;;20.43;8.80;;;0.70;99.00;;;;;;6223855;22;20342;-84
2023/01/26 06:11:06;;;;;;;17.77;6.17;;;0.70;99.00;;;;;;6250601;22;20053;-84
2023/01/26 06:13:54;;;;;;;19.10;5.93;;;0.70;99.00;;;;;;6226655;22;20043;-84
2023/01/26 06:16:28;;;;;;;18.60;7.03;;;0.70;99.00;;;;;;6205124;22;20019;-84
2023/01/26 06:19:02;;;;;;;18.73;7.03;;;0.70;99.00;;;;;;6223871;22;20323;-85
2023/01/26 06:21:37;;;;;;;18.27;6.37;;;0.80;99.30;;;;;;6249856;22;20069;-84
2023/01/26 06:24:04;;;;;;;20.47;7.37;;;0.80;99.00;;;;;;6224833;22;20023;-84
2023/01/26 06:26:32;;;;;;;17.47;6.57;;;0.70;99.00;;;;;;6225072;22;20030;-84
2023/01/26 06:29:21;;;;;;;15.30;5.97;;;0.80;99.00;;;;;;6272761;22;20016;-85
2023/01/26 06:32:11;;;;;;;;;;;;;;;;;;;;;
2023/01/26 06:34:51;;;;;;;13.83;6.33;;;0.80;99.00;;;;;;6246673;22;20016;-85
2023/01/26 06:37:23;;;;;;;16.03;6.50;;;0.80;99.00;;;;;;6201030;22;20445;-85
2023/01/26 06:39:53;;;;;;;16.73;6.23;;;0.80;99.00;;;;;;6249766;22;20020;-85
2023/01/26 06:42:27;;;;;;;19.90;7.00;;;0.80;99.00;;;;;;6249381;22;20331;-84
2023/01/26 06:44:56;;;;;;;17.27;6.23;;;0.80;99.00;;;;;;6200433;22;20054;-86
2023/01/26 06:51:50;;;;;;;18.27;6.20;;;0.80;99.00;;;;;;6248848;22;20079;-86
2023/01/26 06:55:36;;;;;;;16.63;6.30;;;0.80;99.00;;;;;;6257292;22;20030;-86
2023/01/26 06:58:27;;;;;;;17.40;5.63;;;0.90;99.00;;;;;;6252877;22;20158;-85
2023/01/26 07:01:06;;;;;;;12.77;4.33;;;0.80;99.00;;;;;;6253646;22;20035;-84
2023/01/26 07:03:40;;;;;;;;;;;0.90;99.10;;;;;;6216884;23;20332;-86
2023/01/26 07:06:13;;;;;;;12.10;3.57;;;0.90;99.10;;;;;;6219986;23;19954;-85
2023/01/26 07:08:45;;;;;;;11.50;3.80;;;0.90;99.10;;;;;;6195341;23;20013;-84
2023/01/26 07:11:18;;;;;;;10.60;3.17;;;1.00;99.10;;;;;;6193415;23;20026;-84
2023/01/26 07:13:51;;;;;;;11.40;3.97;;;1.00;99.10;;;;;;6170002;23;20012;-84
2023/01/26 07:16:24;;;;;;;10.40;3.03;;;1.00;99.10;;;;;;6194499;23;20016;-83
2023/01/26 07:18:57;;;;;;;9.97;3.60;;;1.00;99.10;;;;;;6219556;23;20095;-84
2023/01/26 07:21:27;;;;;;;11.13;3.87;;;1.00;99.10;;;;;;6194596;23;20039;-84
2023/01/26 07:23:56;;;;;;;11.80;3.63;;;1.00;99.10;;;;;;6219968;23;20458;-84
2023/01/26 07:26:24;;;;;;;13.03;4.80;;;1.00;99.30;;;;;;6194251;23;20525;-83
2023/01/26 07:28:56;;;;;;;9.27;3.08;;;1.00;99.10;;;;;;6219729;23;20016;-83
2023/01/26 07:31:33;;;;;;;10.17;3.30;;;1.00;99.20;;;;;;6194439;23;20028;-83
2023/01/26 07:34:02;;;;;;;10.90;4.30;;;1.10;99.10;;;;;;6195718;23;20025;-83
2023/01/26 07:36:29;;;;;;;13.10;3.43;;;1.10;99.10;;;;;;6194031;23;20444;-84
2023/01/26 07:38:57;;;;;;;11.13;3.43;;;1.10;99.10;;;;;;6218773;23;20335;-83
2023/01/26 07:41:28;;;;;;;12.40;4.23;;;1.10;99.10;;;;;;6194269;23;20393;-83
2023/01/26 07:43:58;;;;;;;11.83;4.37;;;1.10;99.10;;;;;;6146479;23;20043;-83
2023/01/26 07:46:25;;;;;;;11.60;4.70;;;1.10;99.10;;;;;;6194122;23;20024;-83
2023/01/26 07:48:56;;;;;;;12.07;4.17;;;1.10;99.10;;;;;;6220213;23;20377;-83
2023/01/26 07:51:26;;;;;;;12.87;4.87;;;1.10;99.10;;;;;;6221470;23;20016;-83
2023/01/26 07:53:53;;;;;;;11.77;4.63;;;1.10;99.10;;;;;;6195214;23;20012;-84
2023/01/26 07:56:20;;;;;;;14.07;4.77;;;1.20;99.10;;;;;;6195790;23;20027;-83
2023/01/26 07:58:52;;;;;;;11.27;5.50;;;1.20;99.10;;;;;;6220603;23;20024;-84
2023/01/26 08:01:20;;;;;;;9.73;3.43;;;1.20;99.10;;;;;;6219843;23;20024;-83
2023/01/26 08:03:55;;;;;;;14.53;3.87;;;1.20;99.10;;;;;;6196153;23;20102;-83
2023/01/26 08:06:23;;;;;;;14.97;4.70;;;1.20;99.10;;;;;;6195997;23;20044;-84
2023/01/26 08:08:57;;;;;;;15.40;5.30;;;1.30;99.10;;;;;;6195938;23;20020;-84
2023/01/26 08:11:27;;;;;;;13.57;4.73;;;1.30;99.10;;;;;;6195780;23;20020;-83
2023/01/26 08:13:58;;;;;;;13.00;3.87;;;1.20;99.00;;;;;;6195593;23;20070;-83
2023/01/26 08:16:28;;;;;;;12.17;4.73;;;1.30;99.10;;;;;;6196330;23;20099;-83
2023/01/26 08:18:56;;;;;;;11.53;3.60;;;1.30;99.10;;;;;;6194712;23;20024;-83
2023/01/26 08:21:25;;;;;;;12.83;3.30;;;1.30;99.10;;;;;;6194901;23;20020;-83
2023/01/26 08:23:53;;;;;;;13.27;4.57;;;1.40;99.10;;;;;;6195454;23;20020;-84
2023/01/26 08:26:20;;;;;;;11.90;4.40;;;1.40;99.00;;;;;;6195393;23;20331;-83
2023/01/26 08:28:47;;;;;;;9.67;4.17;;;1.40;99.00;;;;;;6195483;23;20016;-84
2023/01/26 08:31:20;;;;;;;15.83;5.10;;;1.40;99.10;;;;;;6170713;23;20024;-83
2023/01/26 08:33:53;;;;;;;14.20;4.50;;;1.40;99.00;;;;;;6219960;23;20016;-83
2023/01/26 08:36:22;;;;;;;12.30;4.40;;;1.40;99.10;;;;;;6220499;23;20058;-87
2023/01/26 08:38:50;;;;;;;10.30;3.90;;;1.50;99.10;;;;;;6196256;23;20074;-88
2023/01/26 08:41:29;;;;;;;10.87;3.33;;;1.50;99.10;;;;;;6197866;23;20024;-88
2023/01/26 08:43:58;;;;;;;8.47;3.27;;;1.60;99.10;;;;;;6196397;23;20024;-88
2023/01/26 08:46:25;;;;;;;10.23;2.90;;;1.60;99.10;;;;;;6196452;23;20055;-88
2023/01/26 08:48:53;;;;;;;9.87;3.47;;;1.60;99.00;;;;;;6196327;23;20021;-89
2023/01/26 08:51:20;;;;;;;11.20;3.13;;;1.70;99.00;;;;;;6196324;23;20016;-89
2023/01/26 08:53:47;;;;;;;11.97;4.93;;;1.80;99.00;;;;;;6197082;23;20008;-89
2023/01/26 08:56:15;;;;;;;18.40;5.10;;;1.70;99.00;;;;;;6196588;23;20492;-89
2023/01/26 08:58:42;;;;;;;13.03;4.87;;;1.80;99.00;;;;;;6221302;23;20024;-88
2023/01/26 09:01:15;;;;;;;15.00;5.47;;;1.80;99.00;;;;;;6196627;23;20024;-89
2023/01/26 09:03:43;;;;;;;14.53;4.57;;;1.80;99.00;;;;;;6196180;23;20028;-86
2023/01/26 09:06:14;;;;;;;18.83;6.10;;;1.90;99.00;;;;;;6194221;23;20020;-86
2023/01/26 09:09:03;;;;;;;19.00;6.17;;;1.90;99.00;;;;;;6196440;23;20099;-86
2023/01/26 09:11:39;;;;;;;16.03;5.97;;;2.00;99.00;;;;;;6197224;23;20018;-86
2023/01/26 09:14:13;;;;;;;14.83;5.30;;;2.00;99.00;;;;;;6170825;23;20008;-86
2023/01/26 09:16:44;;;;;;;17.53;5.13;;;2.00;99.00;;;;;;6195591;23;20331;-85
2023/01/26 09:19:39;;;;;;;17.73;5.90;;;2.10;99.00;;;;;;6201823;23;20481;-87
2023/01/26 09:22:12;;;;;;;17.77;5.43;;;2.10;98.90;;;;;;6221747;23;20031;-86
2023/01/26 09:24:58;;;;;;;16.97;5.73;;;2.10;98.90;;;;;;6217893;23;20470;-86
2023/01/26 09:27:25;;;;;;;18.60;5.70;;;2.20;98.90;;;;;;6196124;23;20054;-87
2023/01/26 09:29:54;;;;;;;22.23;6.50;;;2.20;98.90;;;;;;6171264;23;20510;-85
2023/01/26 09:32:26;;;;;;;23.40;7.43;;;2.20;98.90;;;;;;6195267;23;20016;-83
2023/01/26 09:34:57;;;;;;;17.13;5.90;;;2.20;99.00;;;;;;6170464;23;20095;-85
2023/01/26 09:38:23;;;;;;;16.13;5.95;;;2.10;99.00;;;;;;6195288;23;20038;-87
2023/01/26 09:42:10;;;;;;;18.67;5.70;;;2.20;99.00;;;;;;6154595;23;20498;-86
2023/01/26 09:46:09;;;;;;;20.83;6.13;;;2.20;99.00;;;;;;6171178;23;20020;-86
2023/01/26 09:49:24;;;;;;;18.13;5.30;;;2.30;99.00;;;;;;6124278;23;20080;-87
2023/01/26 09:52:22;;;;;;;14.13;4.93;;;2.30;99.00;;;;;;6219890;23;20342;-86
2023/01/26 09:54:59;;;;;;;24.08;8.23;;;2.40;99.00;;;;;;6195840;23;20053;-87
2023/01/26 09:57:50;;;;;;;18.52;6.95;;;2.40;98.90;;;;;;6195418;23;20469;-87
2023/01/26 10:00:34;;;;;;;12.35;5.22;;;2.40;98.90;;;;;;6173498;23;20394;-87
2023/01/26 10:03:28;;;;;;;18.42;5.15;;;2.50;99.00;;;;;;6185761;23;20024;-86
2023/01/26 10:06:45;;;;;;;12.50;4.47;;;2.60;99.00;;;;;;6166299;23;20020;-86
2023/01/26 10:09:38;;;;;;;11.80;4.32;;;2.60;99.00;;;;;;6194543;23;20433;-86
2023/01/26 10:12:30;;;;;;;14.63;4.33;;;2.70;98.90;;;;;;6189700;23;20028;-86
2023/01/26 10:15:38;;;;;;;16.30;6.15;;;2.80;98.80;;;;;;6166519;23;20080;-87
2023/01/26 10:18:20;;;;;;;12.55;3.90;;;2.90;98.80;;;;;;6190161;23;20068;-86
2023/01/26 10:20:53;;;;;;;13.73;3.92;;;2.90;98.80;;;;;;6164830;23;20020;-86
2023/01/26 10:23:32;;;;;;;9.20;3.55;;;3.00;98.80;;;;;;6164851;23;20103;-86
2023/01/26 10:26:22;;;;;;;14.07;5.23;;;3.00;98.80;;;;;;6165238;23;20035;-86
2023/01/26 10:28:57;;;;;;;14.33;4.00;;;3.10;98.80;;;;;;6189743;23;20462;-87
2023/01/26 10:31:32;;;;;;;13.18;4.03;;;3.10;98.80;;;;;;6165446;23;20017;-88
2023/01/26 10:34:14;;;;;;;9.50;3.57;;;3.10;98.80;;;;;;6165807;23;20328;-87
2023/01/26 10:36:46;;;;;;;12.48;3.88;;;3.20;98.80;;;;;;6164908;23;20447;-86
2023/01/26 10:39:48;;;;;;;;;;;;;;;;;;;;;
2023/01/26 10:42:26;;;;;;;11.87;4.20;;;3.20;98.80;;;;;;6185546;23;20024;-86
2023/01/26 10:49:31;;;;;;;15.70;5.20;;;3.10;98.90;;;;;;6190517;23;20096;-88
2023/01/26 10:52:57;;;;;;;13.48;4.88;;;3.00;99.00;;;;;;6133894;23;20092;-91
2023/01/26 10:55:55;;;;;;;13.10;4.78;;;3.00;99.00;;;;;;6190210;23;20016;-89
2023/01/26 10:59:06;;;;;;;;;;;;;;;;;;;;;
2023/01/26 11:01:59;;;;;;;15.32;5.00;;;3.00;99.10;;;;;;6189978;23;20027;-87
2023/01/26 11:04:34;;;;;;;12.60;4.78;;;3.00;99.20;;;;;;6183778;23;20063;-88
2023/01/26 11:07:31;;;;;;;13.20;4.00;;;3.00;99.20;;;;;;6191824;23;20021;-89
2023/01/26 11:10:15;;;;;;;13.95;4.60;;;3.00;99.20;;;;;;6166663;23;20016;-87
2023/01/26 11:12:51;;;;;;;9.73;3.50;;;3.00;99.30;;;;;;6194707;23;20020;-90
2023/01/26 11:15:26;;;;;;;10.40;4.30;;;3.00;99.30;;;;;;6147212;23;20021;-88
2023/01/26 11:18:45;;;;;;;;;;;;;;;;;;;;;
2023/01/26 11:21:52;;;;;;;;;;;;;;;;;;;;;
2023/01/26 11:24:52;;;;;;;7.18;2.40;;;3.20;99.30;;;;;;6191958;23;20019;-89
2023/01/26 11:32:12;;;;;;;6.82;1.98;;;3.30;99.30;;;;;;6102274;23;20042;-88
2023/01/26 11:35:28;;;;;;;6.50;2.30;;;3.40;99.20;;;;;;6093519;23;20002;-87
2023/01/26 11:38:41;;;;;;;9.70;3.28;;;3.40;99.20;;;;;;6088165;23;20034;-86
2023/01/26 11:41:59;;;;;;;7.68;1.90;;;3.50;99.30;;;;;;6054001;23;20026;-90
2023/01/26 11:45:29;;;;;;;;;;;;;;;;;;;;;
2023/01/26 12:04:59;;;;;;;6.45;1.95;;;4.10;99.10;;;;;;6122170;23;20025;-89
2023/01/26 12:08:41;;;;;;;14.23;3.72;;;4.40;98.90;;;;;;6126048;23;20041;-93
2023/01/26 12:11:27;;;;;;;7.35;2.10;;;4.50;98.90;;;;;;6103790;23;20025;-87
2023/01/26 12:17:19;;;;;;;10.60;2.90;;;4.80;98.80;;;;;;6208709;23;20095;-87
2023/01/26 12:20:13;;;;;;;7.32;2.53;;;5.00;98.70;;;;;;6221479;23;20027;-90
2023/01/26 12:22:48;;;;;;;10.07;2.60;;;5.10;98.60;;;;;;6221728;23;20098;-92
2023/01/26 12:25:36;;;;;;;6.80;2.17;;;5.20;98.70;;;;;;6197508;23;20031;-93
2023/01/26 12:28:31;;;;;;;6.35;2.17;;;5.40;98.60;;;;;;6196772;23;20095;-87
2023/01/26 12:31:53;;;;;;;5.70;2.05;;;5.60;98.50;;;;;;6219163;23;20027;-94
2023/01/26 12:34:27;;;;;;;11.43;1.50;;;5.70;98.50;;;;;;6049662;23;20031;-92
2023/01/26 12:37:31;;;;;;;6.75;1.50;;;5.70;98.50;;;;;;6216480;23;20070;-91
2023/01/26 12:40:06;;;;;;;7.68;1.83;;;5.80;98.60;;;;;;6196811;23;20091;-92
2023/01/26 12:46:08;;;;;;;6.13;1.15;;;6.10;98.50;;;;;;6222894;23;20099;-92
2023/01/26 12:49:26;;;;;;;4.72;1.02;;;6.20;98.40;;;;;;6197150;23;20027;-90
2023/01/26 12:52:01;;;;;;;10.57;1.95;;;6.30;98.40;;;;;;6072527;23;20022;-90
2023/01/26 12:54:43;;;;;;;9.93;1.77;;;6.50;98.30;;;;;;6197610;23;20152;-91
2023/01/26 12:57:20;;;;;;;7.43;1.33;;;6.50;98.30;;;;;;6221399;23;20072;-89
2023/01/26 12:59:48;;;;;;;5.70;1.30;;;6.50;98.40;;;;;;6196578;23;20047;-89
2023/01/26 13:02:35;;;;;;;5.20;0.90;;;6.60;98.40;;;;;;6197151;23;20024;-92
2023/01/26 13:05:06;;;;;;;7.40;1.40;;;6.70;98.30;;;;;;6185459;23;20036;-91
2023/01/26 13:07:38;;;;;;;4.38;0.80;;;6.80;98.40;;;;;;6191556;23;20024;-92
2023/01/26 13:10:22;;;;;;;6.28;0.93;;;6.80;98.30;;;;;;6192731;23;20541;-91
2023/01/26 13:13:20;;;;;;;5.18;0.90;;;6.80;98.30;;;;;;6168712;23;20016;-91
2023/01/26 13:16:16;;;;;;;4.70;1.02;;;6.80;98.30;;;;;;6171517;23;20020;-91
2023/01/26 13:18:58;;;;;;;6.75;1.17;;;6.80;98.40;;;;;;6191593;23;20020;-90
2023/01/26 13:21:34;;;;;;;6.22;1.08;;;6.90;98.40;;;;;;6191358;23;20036;-89
2023/01/26 13:24:15;;;;;;;8.70;1.20;;;6.90;98.30;;;;;;6190673;23;20095;-90
2023/01/26 13:26:47;;;;;;;5.78;1.00;;;6.90;98.30;;;;;;6215758;23;20090;-89
2023/01/26 13:29:26;;;;;;;9.40;2.80;;;7.00;98.30;;;;;;6166664;23;20025;-89
2023/01/26 13:31:59;;;;;;;6.65;1.30;;;7.00;98.20;;;;;;6215882;23;20020;-87
2023/01/26 13:34:32;;;;;;;9.10;1.67;;;7.00;98.20;;;;;;6190355;23;20382;-88
2023/01/26 13:37:15;;;;;;;7.65;1.10;;;7.00;98.30;;;;;;6165679;23;20012;-88
2023/01/26 13:39:50;;;;;;;5.10;1.00;;;7.00;98.30;;;;;;6191120;23;20078;-88
2023/01/26 13:42:40;;;;;;;4.32;0.50;;;7.10;98.30;;;;;;6166106;23;20552;-88
2023/01/26 13:49:36;;;;;;;;;;;;;;;;;;;;;
2023/01/26 13:52:30;;;;;;;;;;;7.10;98.30;;;;;;6117630;23;20088;-93
2023/01/26 13:56:31;;;;;;;4.65;0.70;;;7.10;98.40;;;;;;6144361;23;19944;-93
2023/01/26 14:02:37;;;;;;;4.87;0.97;;;7.10;98.40;;;;;;6111385;23;20036;-88
2023/01/26 14:05:39;;;;;;;3.08;0.50;;;7.10;98.40;;;;;;6101636;23;20273;-92
2023/01/26 14:08:21;;;;;;;6.65;0.57;;;7.10;98.40;;;;;;6166715;23;20055;-93
2023/01/26 14:11:03;;;;;;;2.20;0.45;;;7.10;98.30;;;;;;6190689;23;20020;-87
2023/01/26 14:13:37;;;;;;;1.60;0.30;;;7.00;98.40;;;;;;6165322;23;20046;-87
2023/01/26 14:16:20;;;;;;;2.03;0.40;;;7.10;98.50;;;;;;6166760;23;20104;-88
2023/01/26 14:19:12;;;;;;;7.40;0.52;;;7.10;98.50;;;;;;6166370;23;20055;-87
2023/01/26 14:21:54;;;;;;;5.40;0.60;;;7.20;98.50;;;;;;6165529;23;20031;-85
2023/01/26 14:24:43;;;;;;;5.68;0.90;;;7.30;98.40;;;;;;6165709;23;20020;-92
2023/01/26 14:27:54;;;;;;;1.83;0.50;;;7.30;98.30;;;;;;6168027;23;20017;-91
2023/01/26 14:30:58;;;;;;;3.30;0.30;;;7.30;98.30;;;;;;6071056;23;20105;-91
2023/01/26 14:33:30;;;;;;;5.45;0.50;;;7.30;98.30;;;;;;6072341;23;20022;-89
2023/01/26 14:36:25;;;;;;;2.88;0.40;;;7.30;98.50;;;;;;6049165;23;20077;-96
2023/01/26 14:39:38;;;;;;;3.13;0.57;;;7.30;98.30;;;;;;6161916;23;20016;-95
2023/01/26 14:42:19;;;;;;;3.95;0.55;;;7.30;98.20;;;;;;6168454;23;20096;-91
2023/01/26 14:44:50;;;;;;;1.83;0.47;;;7.30;98.20;;;;;;6190871;23;20017;-89
2023/01/26 14:47:29;;;;;;;1.63;0.40;;;7.20;98.30;;;;;;6165490;23;20020;-93
2023/01/26 14:50:07;;;;;;;2.58;0.47;;;7.20;98.20;;;;;;6190980;23;20020;-93
2023/01/26 14:52:40;;;;;;;2.25;0.38;;;7.20;98.30;;;;;;6190978;23;20075;-92
2023/01/26 14:55:20;;;;;;;2.13;0.32;;;7.10;98.30;;;;;;6190717;23;20103;-87
2023/01/26 14:58:41;;;;;;;2.50;0.63;;;7.10;98.30;;;;;;6187811;23;20028;-88
2023/01/26 15:06:33;;;;;;;;;;;;;;;;;;;;;
2023/01/26 15:09:46;;;;;;;6.93;0.63;;;7.00;98.30;;;;;;6248108;23;20091;-95
2023/01/26 15:12:16;;;;;;;2.17;0.30;;;7.00;98.20;;;;;;6219257;23;20048;-90
2023/01/26 15:14:50;;;;;;;3.80;0.40;;;7.00;98.20;;;;;;6196204;23;20494;-93
2023/01/26 15:17:43;;;;;;;2.30;0.55;;;7.00;98.20;;;;;;6196174;23;20025;-93
2023/01/26 15:25:46;;;;;;;4.82;1.85;;;7.00;98.10;;;;;;6257472;23;20038;-94
2023/01/26 15:28:58;;;;;;;1.35;0.40;;;6.90;98.10;;;;;;6264059;23;20020;-94
2023/01/26 15:31:57;;;;;;;1.75;0.20;;;6.90;98.10;;;;;;6213225;23;20023;-89
2023/01/26 15:34:41;;;;;;;3.13;0.30;;;6.90;98.00;;;;;;6222731;23;20016;-89
2023/01/26 15:38:01;;;;;;;;;;;;;;;;;;;;;
2023/01/26 15:41:08;;;;;;;2.60;0.20;;;6.90;98.10;;;;;;6234619;23;20028;-88
2023/01/26 15:43:38;;;;;;;5.25;1.15;;;6.80;98.10;;;;;;6197008;23;20036;-95
2023/01/26 15:46:22;;;;;;;1.58;0.20;;;6.80;98.10;;;;;;6198331;23;20020;-92
2023/01/26 15:48:53;;;;;;;2.15;0.20;;;6.80;98.10;;;;;;6197637;23;20043;-94